Time;durP1;ratioP1;P1;durP2;ratioP2;P2;SDS_P1;SDS_P2;PMS_P1;PMS_P2;Temp;Humidity;BMP_temperature;BMP_pressure;BME280_temperature;BME280_humidity;BME280_pressure;Samples;Min_cycle;Max_cycle;Signal;HPM_P1;HPM_P2
2023/01/24 00:00:53;;;;;;;16.27;9.43;;;3.30;99.90;;;;;;5065424;28;20204;-65
2023/01/24 00:03:20;;;;;;;14.87;9.20;;;3.30;99.90;;;;;;5040416;28;20344;-66
2023/01/24 00:05:48;;;;;;;16.13;8.37;;;3.30;99.90;;;;;;5078535;28;20199;-65
2023/01/24 00:08:18;;;;;;;12.53;8.23;;;3.30;99.90;;;;;;5085391;28;20207;-66
2023/01/24 00:10:45;;;;;;;16.50;9.23;;;3.30;99.90;;;;;;5066738;28;20202;-65
2023/01/24 00:13:13;;;;;;;12.43;7.77;;;3.30;99.90;;;;;;5074849;28;20566;-65
2023/01/24 00:15:41;;;;;;;17.07;8.93;;;3.30;99.90;;;;;;5053622;28;20207;-66
2023/01/24 00:18:08;;;;;;;14.83;9.03;;;3.30;99.90;;;;;;5039080;28;20238;-66
2023/01/24 00:20:35;;;;;;;15.80;8.83;;;3.30;99.90;;;;;;5082534;28;20198;-66
2023/01/24 00:23:02;;;;;;;17.20;8.97;;;3.30;99.90;;;;;;5078613;28;20206;-66
2023/01/24 00:25:29;;;;;;;16.57;9.47;;;3.30;99.90;;;;;;5071338;28;20687;-66
2023/01/24 00:27:56;;;;;;;15.83;9.87;;;3.20;99.90;;;;;;5079421;27;20672;-65
2023/01/24 00:30:22;;;;;;;15.13;9.20;;;3.20;99.90;;;;;;5071379;28;20196;-65
2023/01/24 00:32:51;;;;;;;14.53;9.13;;;3.30;99.90;;;;;;5069575;28;22717;-66
2023/01/24 00:35:18;;;;;;;13.90;8.60;;;3.30;99.90;;;;;;5062574;27;20704;-66
2023/01/24 00:37:44;;;;;;;15.90;9.20;;;3.30;99.90;;;;;;5084603;27;20239;-66
2023/01/24 00:40:12;;;;;;;17.80;10.33;;;3.30;99.90;;;;;;5072076;27;20238;-66
2023/01/24 00:42:38;;;;;;;20.47;10.17;;;3.20;99.90;;;;;;5082808;27;20291;-65
2023/01/24 00:45:06;;;;;;;18.07;10.10;;;3.30;99.90;;;;;;5065200;28;20223;-66
2023/01/24 00:47:33;;;;;;;18.93;9.50;;;3.20;99.90;;;;;;5065048;27;20207;-66
2023/01/24 00:50:01;;;;;;;18.50;9.43;;;3.20;99.90;;;;;;5052501;27;20225;-66
2023/01/24 00:52:28;;;;;;;16.73;9.43;;;3.20;99.90;;;;;;5078547;28;20195;-66
2023/01/24 00:54:55;;;;;;;13.13;9.10;;;3.10;99.90;;;;;;5075166;28;20203;-65
2023/01/24 00:57:24;;;;;;;15.23;9.10;;;3.10;99.90;;;;;;5059040;28;20295;-66
2023/01/24 00:59:50;;;;;;;18.53;9.57;;;3.20;99.90;;;;;;5079003;28;20192;-65
2023/01/24 01:02:17;;;;;;;19.83;10.00;;;3.20;99.90;;;;;;5057477;27;21636;-66
2023/01/24 01:04:44;;;;;;;14.07;8.90;;;3.20;99.90;;;;;;5049702;28;20794;-65
2023/01/24 01:07:12;;;;;;;17.97;10.10;;;3.20;99.90;;;;;;5077091;27;20210;-66
2023/01/24 01:09:39;;;;;;;20.80;10.67;;;3.20;99.90;;;;;;5081360;28;20208;-66
2023/01/24 01:12:06;;;;;;;18.43;10.43;;;3.20;99.90;;;;;;5072099;28;20210;-66
2023/01/24 01:14:33;;;;;;;18.17;10.70;;;3.10;99.90;;;;;;5078909;28;20214;-66
2023/01/24 01:17:01;;;;;;;21.40;11.47;;;3.20;99.90;;;;;;5056150;27;20218;-66
2023/01/24 01:19:27;;;;;;;26.00;13.30;;;3.20;99.90;;;;;;5045021;28;20760;-66
2023/01/24 01:21:54;;;;;;;21.43;11.13;;;3.10;99.90;;;;;;5074204;28;20873;-66
2023/01/24 01:24:22;;;;;;;22.67;11.10;;;3.10;99.90;;;;;;5076952;28;20735;-65
2023/01/24 01:26:49;;;;;;;22.43;11.03;;;3.10;99.90;;;;;;5071384;28;20227;-65
2023/01/24 01:29:16;;;;;;;20.53;10.43;;;3.10;99.90;;;;;;5072408;27;20263;-65
2023/01/24 01:31:43;;;;;;;17.37;10.07;;;3.20;99.90;;;;;;5070398;28;20204;-65
2023/01/24 01:34:11;;;;;;;19.60;10.60;;;3.20;99.90;;;;;;5059927;28;20203;-66
2023/01/24 01:36:38;;;;;;;18.43;10.67;;;3.10;99.90;;;;;;5047563;28;20222;-66
2023/01/24 01:39:05;;;;;;;17.20;10.03;;;3.20;99.90;;;;;;5080403;28;20226;-66
2023/01/24 01:41:33;;;;;;;16.87;10.23;;;3.20;99.90;;;;;;5081529;28;20671;-65
2023/01/24 01:47:03;;;;;;;19.20;9.20;;;3.10;99.90;;;;;;5057990;28;20242;-65
2023/01/24 01:49:30;;;;;;;15.27;10.17;;;3.10;99.90;;;;;;5068681;28;20207;-66
2023/01/24 01:52:02;;;;;;;18.03;9.63;;;3.10;99.90;;;;;;5050879;28;20207;-66
2023/01/24 01:54:32;;;;;;;16.73;10.37;;;3.10;99.90;;;;;;5081901;28;20205;-65
2023/01/24 01:57:04;;;;;;;18.23;9.83;;;3.10;99.90;;;;;;5077328;28;20208;-66
2023/01/24 01:59:36;;;;;;;11.57;8.23;;;3.10;99.90;;;;;;5066009;28;21864;-65
2023/01/24 02:02:04;;;;;;;14.27;9.03;;;3.10;99.90;;;;;;5057938;28;20196;-66
2023/01/24 02:04:35;;;;;;;14.17;8.40;;;3.10;99.90;;;;;;5059230;27;20246;-66
2023/01/24 02:07:05;;;;;;;12.13;7.90;;;3.10;99.90;;;;;;5042590;28;20275;-65
2023/01/24 02:09:34;;;;;;;13.07;8.00;;;3.10;99.90;;;;;;5075425;27;20214;-67
2023/01/24 02:12:06;;;;;;;13.03;8.10;;;3.10;99.90;;;;;;5079178;28;20203;-65
2023/01/24 02:17:33;;;;;;;12.97;8.77;;;3.20;99.90;;;;;;4986418;28;20288;-66
2023/01/24 02:20:33;;;;;;;12.57;7.37;;;3.10;99.90;;;;;;5006081;28;20730;-65
2023/01/24 02:23:09;;;;;;;15.20;8.20;;;3.20;99.90;;;;;;5016723;28;20218;-65
2023/01/24 02:25:40;;;;;;;13.97;8.63;;;3.10;99.90;;;;;;5062531;28;20206;-65
2023/01/24 02:28:10;;;;;;;13.07;7.63;;;3.20;99.90;;;;;;5077474;27;20723;-65
2023/01/24 02:30:38;;;;;;;12.27;7.37;;;3.10;99.90;;;;;;5059506;28;20223;-66
2023/01/24 02:33:13;;;;;;;14.00;8.00;;;3.10;99.90;;;;;;5061322;28;20208;-66
2023/01/24 02:35:40;;;;;;;11.43;7.53;;;3.10;99.90;;;;;;5065602;28;20195;-66
2023/01/24 02:38:15;;;;;;;10.93;7.43;;;3.10;99.90;;;;;;5049264;28;20698;-65
2023/01/24 02:40:43;;;;;;;13.40;8.30;;;3.10;99.90;;;;;;5074339;27;20313;-65
2023/01/24 02:43:14;;;;;;;11.93;8.07;;;3.10;99.90;;;;;;5084306;27;20210;-65
2023/01/24 02:45:41;;;;;;;11.90;7.27;;;3.20;99.90;;;;;;5058166;28;20207;-65
2023/01/24 02:48:08;;;;;;;13.60;7.40;;;3.20;99.90;;;;;;5067897;28;20209;-65
2023/01/24 02:53:31;;;;;;;13.70;8.03;;;3.20;99.90;;;;;;5063926;28;20202;-66
2023/01/24 02:58:44;;;;;;;13.20;7.97;;;3.20;99.90;;;;;;5057510;28;20238;-66
2023/01/24 03:01:11;;;;;;;11.53;7.87;;;3.20;99.90;;;;;;5064759;28;20203;-65
2023/01/24 03:03:38;;;;;;;15.03;7.80;;;3.20;99.90;;;;;;5070351;28;21134;-66
2023/01/24 03:06:05;;;;;;;12.70;8.17;;;3.20;99.90;;;;;;5065559;28;20224;-66
2023/01/24 03:08:34;;;;;;;11.10;6.83;;;3.20;99.90;;;;;;5063291;28;20717;-66
2023/01/24 03:11:02;;;;;;;14.00;7.63;;;3.10;99.90;;;;;;5046003;28;20247;-66
2023/01/24 03:35:28;;;;;;;12.67;7.67;;;3.20;99.90;;;;;;5054756;28;20245;-66
2023/01/24 03:40:39;;;;;;;14.13;7.07;;;3.20;99.90;;;;;;5037016;28;20226;-66
2023/01/24 03:43:06;;;;;;;10.87;6.47;;;3.20;99.90;;;;;;5077414;28;20196;-65
2023/01/24 03:45:35;;;;;;;9.10;6.07;;;3.10;99.90;;;;;;5062110;28;21042;-66
2023/01/24 03:48:09;;;;;;;13.57;7.43;;;3.20;99.90;;;;;;5083577;28;20631;-65
2023/01/24 03:53:24;;;;;;;12.47;8.07;;;3.20;99.90;;;;;;5079627;28;20707;-66
2023/01/24 03:55:53;;;;;;;10.97;6.83;;;3.20;99.90;;;;;;5020812;28;20306;-66
2023/01/24 03:58:20;;;;;;;9.20;6.53;;;3.20;99.90;;;;;;5074420;28;20200;-66
2023/01/24 04:00:47;;;;;;;10.10;6.70;;;3.20;99.90;;;;;;5059475;28;20222;-66
2023/01/24 04:03:15;;;;;;;8.00;5.70;;;3.20;99.90;;;;;;5075194;28;20206;-66
2023/01/24 04:05:42;;;;;;;9.63;5.80;;;3.20;99.90;;;;;;5072109;28;20204;-65
2023/01/24 04:08:09;;;;;;;10.60;6.10;;;3.20;99.90;;;;;;5072154;28;20214;-65
2023/01/24 04:10:36;;;;;;;8.57;5.27;;;3.20;99.90;;;;;;5061832;28;20200;-66
2023/01/24 04:13:03;;;;;;;9.37;6.83;;;3.20;99.90;;;;;;5061130;28;20252;-65
2023/01/24 04:15:31;;;;;;;7.93;6.03;;;3.10;99.90;;;;;;5080436;28;20200;-66
2023/01/24 04:18:00;;;;;;;9.90;6.30;;;3.20;99.90;;;;;;5072527;28;20203;-66
2023/01/24 04:20:31;;;;;;;8.93;6.63;;;3.10;99.90;;;;;;5076590;27;21484;-65
2023/01/24 04:23:01;;;;;;;8.87;6.00;;;3.20;99.90;;;;;;5065617;28;20772;-66
2023/01/24 04:25:28;;;;;;;9.83;6.37;;;3.20;99.90;;;;;;5048769;28;22862;-65
2023/01/24 04:27:56;;;;;;;10.90;6.97;;;3.20;99.90;;;;;;5047061;28;20208;-65
2023/01/24 04:30:24;;;;;;;11.87;6.77;;;3.20;99.90;;;;;;5075963;28;20229;-65
2023/01/24 04:32:50;;;;;;;9.70;7.37;;;3.20;99.90;;;;;;5051466;27;20584;-65
2023/01/24 04:35:18;;;;;;;11.13;7.87;;;3.30;99.90;;;;;;5074828;28;20204;-65
2023/01/24 04:37:47;;;;;;;9.83;6.97;;;3.20;99.90;;;;;;5060779;27;20199;-65
2023/01/24 04:40:14;;;;;;;10.37;6.67;;;3.20;99.90;;;;;;5055634;27;20378;-65
2023/01/24 04:42:41;;;;;;;11.20;7.27;;;3.20;99.90;;;;;;5036909;28;20295;-66
2023/01/24 04:45:10;;;;;;;10.30;7.20;;;3.20;99.90;;;;;;5077019;27;20211;-65
2023/01/24 04:47:37;;;;;;;12.13;6.33;;;3.20;99.90;;;;;;5060748;28;20205;-66
2023/01/24 04:50:05;;;;;;;10.03;6.67;;;3.20;99.90;;;;;;5086908;27;20195;-66
2023/01/24 04:52:32;;;;;;;9.50;6.83;;;3.20;99.90;;;;;;5070969;28;20314;-65
2023/01/24 04:55:00;;;;;;;11.57;6.90;;;3.10;99.90;;;;;;5072209;28;20203;-66
2023/01/24 04:57:27;;;;;;;10.47;6.27;;;3.10;99.90;;;;;;5066158;28;20469;-65
2023/01/24 04:59:53;;;;;;;10.53;6.80;;;3.20;99.90;;;;;;5028170;28;20969;-66
2023/01/24 05:02:20;;;;;;;10.53;6.80;;;3.20;99.90;;;;;;5074786;28;20199;-66
2023/01/24 05:04:47;;;;;;;11.80;7.70;;;3.20;99.90;;;;;;5079512;28;20646;-65
2023/01/24 05:07:14;;;;;;;9.73;6.77;;;3.20;99.90;;;;;;5071137;27;20191;-66
2023/01/24 05:09:41;;;;;;;11.80;7.03;;;3.20;99.90;;;;;;5061891;28;20298;-66
2023/01/24 05:12:09;;;;;;;11.47;7.37;;;3.20;99.90;;;;;;5055494;27;20224;-65
2023/01/24 05:14:36;;;;;;;12.10;7.17;;;3.20;99.90;;;;;;5030511;28;20986;-65
2023/01/24 05:17:03;;;;;;;12.53;7.80;;;3.20;99.90;;;;;;5064654;28;20725;-66
2023/01/24 05:19:30;;;;;;;11.00;6.93;;;3.20;99.90;;;;;;5069025;27;20223;-66
2023/01/24 05:21:57;;;;;;;11.97;7.50;;;3.80;99.90;;;;;;5071119;28;20215;-67
2023/01/24 05:24:23;;;;;;;11.97;8.57;;;3.20;99.90;;;;;;5069842;28;20210;-66
2023/01/24 05:26:50;;;;;;;11.97;7.50;;;3.20;99.90;;;;;;5070455;28;20240;-66
2023/01/24 05:29:18;;;;;;;13.13;8.00;;;3.10;99.90;;;;;;5052842;28;20219;-66
2023/01/24 05:31:45;;;;;;;11.10;7.47;;;3.10;99.90;;;;;;5070026;27;20200;-65
2023/01/24 05:34:12;;;;;;;11.87;7.90;;;3.10;99.90;;;;;;5062129;28;21245;-65
2023/01/24 05:36:39;;;;;;;8.77;6.50;;;3.10;99.90;;;;;;5080571;28;20200;-65
2023/01/24 05:39:06;;;;;;;11.43;6.80;;;3.10;99.90;;;;;;5064210;28;20232;-65
2023/01/24 05:41:33;;;;;;;10.43;7.13;;;3.10;99.90;;;;;;5086517;28;20210;-65
2023/01/24 05:43:59;;;;;;;9.13;7.00;;;3.10;99.90;;;;;;5041416;28;21743;-66
2023/01/24 05:46:29;;;;;;;11.10;7.03;;;3.10;99.90;;;;;;5066345;27;20207;-65
2023/01/24 05:48:56;;;;;;;10.33;7.00;;;3.10;99.90;;;;;;5059995;28;20211;-65
2023/01/24 05:51:22;;;;;;;9.53;6.63;;;3.10;99.90;;;;;;5086075;28;20204;-65
2023/01/24 05:53:49;;;;;;;9.40;6.83;;;3.10;99.90;;;;;;5054807;28;20220;-65
2023/01/24 05:56:18;;;;;;;10.97;7.27;;;3.10;99.90;;;;;;5066127;28;20223;-65
2023/01/24 05:58:46;;;;;;;10.13;6.93;;;3.10;99.90;;;;;;5065797;28;20629;-65
2023/01/24 06:01:15;;;;;;;9.30;7.03;;;3.10;99.90;;;;;;5037041;28;20208;-65
2023/01/24 06:03:44;;;;;;;11.03;7.73;;;3.30;99.90;;;;;;5069304;28;20206;-65
2023/01/24 06:06:13;;;;;;;12.27;8.37;;;3.10;99.90;;;;;;5067721;28;20203;-66
2023/01/24 06:08:39;;;;;;;12.47;7.80;;;3.10;99.90;;;;;;5051565;28;20226;-64
2023/01/24 06:11:08;;;;;;;11.93;7.50;;;3.10;99.90;;;;;;5068191;28;20581;-65
2023/01/24 06:13:35;;;;;;;10.50;7.87;;;3.10;99.90;;;;;;5052739;28;20240;-65
2023/01/24 06:16:04;;;;;;;11.30;7.87;;;3.10;99.90;;;;;;5038907;28;20231;-65
2023/01/24 06:18:31;;;;;;;12.77;7.97;;;3.10;99.90;;;;;;5064275;28;20580;-66
2023/01/24 06:21:05;;;;;;;11.20;7.10;;;3.10;99.90;;;;;;5054101;28;20230;-66
2023/01/24 06:23:32;;;;;;;12.60;7.63;;;3.20;99.90;;;;;;5070272;28;20204;-66
2023/01/24 06:25:59;;;;;;;15.10;7.47;;;3.10;99.90;;;;;;5087268;28;20778;-65
2023/01/24 06:28:27;;;;;;;10.20;7.13;;;3.00;99.90;;;;;;5068383;28;21234;-66
2023/01/24 06:31:02;;;;;;;14.33;8.40;;;3.00;99.90;;;;;;5041184;27;20215;-66
2023/01/24 06:33:36;;;;;;;14.97;7.90;;;3.10;99.90;;;;;;5073548;28;20202;-65
2023/01/24 06:36:32;;;;;;;12.40;6.97;;;3.10;99.90;;;;;;5085613;28;20973;-64
2023/01/24 06:38:59;;;;;;;10.93;7.20;;;3.10;99.90;;;;;;5076577;28;20229;-65
2023/01/24 06:41:26;;;;;;;9.20;6.50;;;3.10;99.90;;;;;;5065909;28;20196;-65
2023/01/24 06:43:53;;;;;;;12.03;7.53;;;3.10;99.90;;;;;;5086170;28;20216;-65
2023/01/24 06:46:21;;;;;;;11.57;7.73;;;3.10;99.90;;;;;;5062787;28;20196;-66
2023/01/24 06:48:47;;;;;;;11.77;7.00;;;3.10;99.90;;;;;;5043525;28;20595;-66
2023/01/24 06:51:15;;;;;;;15.33;7.73;;;3.10;99.90;;;;;;5076047;28;20210;-65
2023/01/24 06:53:43;;;;;;;14.70;8.37;;;3.10;99.90;;;;;;5055545;28;20200;-65
2023/01/24 06:56:10;;;;;;;11.37;7.17;;;3.10;99.90;;;;;;5073736;28;20212;-65
2023/01/24 06:58:37;;;;;;;23.67;11.47;;;3.10;99.90;;;;;;5079301;28;20211;-66
2023/01/24 07:01:03;;;;;;;23.03;8.93;;;3.10;99.90;;;;;;5063594;28;21401;-65
2023/01/24 07:03:31;;;;;;;14.07;8.37;;;3.10;99.90;;;;;;5041136;28;20204;-65
2023/01/24 07:05:57;;;;;;;13.63;7.53;;;3.10;99.90;;;;;;5077408;28;20319;-65
2023/01/24 07:08:24;;;;;;;13.13;7.73;;;3.00;99.90;;;;;;5038011;28;20210;-65
2023/01/24 07:10:52;;;;;;;13.63;7.67;;;3.00;99.90;;;;;;5073463;28;20273;-65
2023/01/24 07:13:19;;;;;;;13.20;8.10;;;3.10;99.90;;;;;;5064622;28;20950;-65
2023/01/24 07:15:46;;;;;;;11.20;7.50;;;3.00;99.90;;;;;;5079633;28;20290;-65
2023/01/24 07:18:15;;;;;;;12.03;7.73;;;3.10;99.90;;;;;;5058431;28;20199;-65
2023/01/24 07:20:42;;;;;;;12.40;8.97;;;3.10;99.90;;;;;;5054916;28;20234;-65
2023/01/24 07:23:21;;;;;;;10.40;7.30;;;3.00;99.90;;;;;;5072716;28;20207;-65
2023/01/24 07:25:48;;;;;;;12.33;8.07;;;3.00;99.90;;;;;;5050349;28;20222;-65
2023/01/24 07:28:17;;;;;;;12.43;7.83;;;3.00;99.90;;;;;;5070327;28;20214;-65
2023/01/24 07:30:44;;;;;;;11.57;7.53;;;3.00;99.90;;;;;;5079654;28;20200;-66
2023/01/24 07:33:12;;;;;;;12.30;8.00;;;3.00;99.90;;;;;;5066390;28;20688;-65
2023/01/24 07:35:39;;;;;;;14.10;8.70;;;3.00;99.90;;;;;;5046344;28;20281;-66
2023/01/24 07:38:06;;;;;;;12.63;8.13;;;3.00;99.90;;;;;;5081298;28;20226;-66
2023/01/24 07:40:33;;;;;;;15.50;8.20;;;3.00;99.90;;;;;;5070671;28;20796;-66
2023/01/24 07:43:00;;;;;;;17.03;9.67;;;3.10;99.90;;;;;;5072778;28;20211;-66
2023/01/24 07:45:29;;;;;;;16.63;8.67;;;3.00;99.90;;;;;;5066838;28;20693;-66
2023/01/24 07:47:56;;;;;;;13.87;8.63;;;3.10;99.90;;;;;;5073001;28;20204;-66
2023/01/24 07:50:23;;;;;;;14.77;8.50;;;3.10;99.90;;;;;;5047975;28;20826;-65
2023/01/24 07:52:51;;;;;;;15.00;9.07;;;3.10;99.90;;;;;;5074967;28;20211;-65
2023/01/24 07:55:18;;;;;;;13.70;8.63;;;3.10;99.90;;;;;;5080539;28;20753;-65
2023/01/24 07:57:45;;;;;;;14.83;8.03;;;3.00;99.90;;;;;;5070241;28;20681;-65
2023/01/24 08:00:13;;;;;;;13.47;8.40;;;3.00;99.90;;;;;;5069004;28;20226;-65
2023/01/24 08:02:41;;;;;;;13.00;8.10;;;3.00;99.90;;;;;;5070952;27;21000;-65
2023/01/24 08:05:08;;;;;;;14.90;8.67;;;3.00;99.90;;;;;;5041200;28;20274;-65
2023/01/24 08:07:35;;;;;;;13.80;8.87;;;3.00;99.90;;;;;;5066001;28;20646;-65
2023/01/24 08:10:02;;;;;;;13.67;8.30;;;3.00;99.90;;;;;;5086244;28;20210;-66
2023/01/24 08:12:29;;;;;;;14.07;8.87;;;3.00;99.90;;;;;;5058518;28;20940;-65
2023/01/24 08:14:56;;;;;;;14.33;8.83;;;3.00;99.90;;;;;;5081583;28;20647;-65
2023/01/24 08:17:22;;;;;;;12.77;8.67;;;3.00;99.90;;;;;;5068981;28;20206;-65
2023/01/24 08:19:51;;;;;;;15.90;8.77;;;3.00;99.90;;;;;;5069994;28;20242;-65
2023/01/24 08:22:17;;;;;;;15.90;9.13;;;3.00;99.90;;;;;;5049675;28;20210;-65
2023/01/24 08:24:44;;;;;;;13.83;8.63;;;3.00;99.90;;;;;;5072829;28;20763;-66
2023/01/24 08:27:11;;;;;;;13.30;8.60;;;3.00;99.90;;;;;;5071596;28;20231;-65
2023/01/24 08:29:38;;;;;;;12.27;8.63;;;3.00;99.90;;;;;;5072481;28;20203;-65
2023/01/24 08:32:05;;;;;;;14.53;8.57;;;3.00;99.90;;;;;;5069328;28;20203;-66
2023/01/24 08:34:32;;;;;;;12.63;8.10;;;3.00;99.90;;;;;;5061364;28;20205;-66
2023/01/24 08:37:00;;;;;;;13.23;8.30;;;3.60;99.90;;;;;;5048537;28;20210;-66
2023/01/24 08:39:27;;;;;;;14.53;8.13;;;3.00;99.90;;;;;;5070537;28;20223;-65
2023/01/24 08:41:53;;;;;;;12.00;8.03;;;3.00;99.90;;;;;;5077912;28;20863;-66
2023/01/24 08:44:20;;;;;;;16.80;8.57;;;3.00;99.90;;;;;;5065933;28;20207;-66
2023/01/24 08:46:47;;;;;;;11.10;7.30;;;3.00;99.90;;;;;;5073250;28;20215;-66
2023/01/24 08:49:14;;;;;;;13.93;8.20;;;3.00;99.90;;;;;;5081016;28;20310;-65
2023/01/24 08:51:41;;;;;;;13.17;8.13;;;3.00;99.90;;;;;;5066399;28;20209;-65
2023/01/24 08:54:09;;;;;;;14.50;8.90;;;3.00;99.90;;;;;;5044850;28;20207;-66
2023/01/24 08:56:36;;;;;;;13.93;8.33;;;3.10;99.90;;;;;;5080388;28;20203;-65
2023/01/24 08:59:02;;;;;;;13.10;8.60;;;3.10;99.90;;;;;;5066538;28;20219;-66
2023/01/24 09:01:31;;;;;;;15.40;8.67;;;3.10;99.90;;;;;;5070250;28;20235;-68
2023/01/24 09:03:59;;;;;;;15.93;8.97;;;3.10;99.90;;;;;;5076152;28;20203;-65
2023/01/24 09:06:26;;;;;;;13.23;8.17;;;3.10;99.90;;;;;;5062551;28;20552;-65
2023/01/24 09:08:54;;;;;;;13.53;8.53;;;3.10;99.90;;;;;;5046753;28;20703;-65
2023/01/24 09:11:22;;;;;;;11.53;7.90;;;3.00;99.90;;;;;;5080746;28;20203;-65
2023/01/24 09:13:49;;;;;;;15.57;8.50;;;3.00;99.90;;;;;;5070945;28;20203;-66
2023/01/24 09:16:16;;;;;;;12.47;8.07;;;3.00;99.90;;;;;;5060744;28;20210;-65
2023/01/24 09:18:43;;;;;;;11.07;7.97;;;3.00;99.90;;;;;;5057587;27;20195;-65
2023/01/24 09:21:10;;;;;;;15.70;8.77;;;3.00;99.90;;;;;;5066349;28;20259;-65
2023/01/24 09:23:37;;;;;;;14.50;8.77;;;2.90;99.90;;;;;;5053225;28;20207;-66
2023/01/24 09:26:04;;;;;;;14.13;9.40;;;2.90;99.90;;;;;;5072561;28;20227;-65
2023/01/24 09:28:33;;;;;;;12.20;8.10;;;2.90;99.90;;;;;;5082074;28;20270;-65
2023/01/24 09:31:01;;;;;;;14.13;8.63;;;2.80;99.90;;;;;;5072739;28;20291;-65
2023/01/24 09:33:28;;;;;;;15.17;9.30;;;2.90;99.90;;;;;;5049828;28;20224;-65
2023/01/24 09:35:57;;;;;;;15.07;8.13;;;2.90;99.90;;;;;;5069415;28;20704;-65
2023/01/24 09:38:26;;;;;;;13.60;9.40;;;3.10;99.90;;;;;;5035387;28;20361;-66
2023/01/24 09:40:57;;;;;;;17.00;9.00;;;3.00;99.90;;;;;;5057105;28;20228;-65
2023/01/24 09:43:43;;;;;;;14.57;8.57;;;3.00;99.90;;;;;;5073459;28;20256;-65
2023/01/24 09:46:25;;;;;;;11.33;7.60;;;3.00;99.90;;;;;;5052635;28;21137;-65
2023/01/24 09:49:00;;;;;;;12.60;7.80;;;3.00;99.90;;;;;;5055018;28;20783;-65
2023/01/24 09:51:30;;;;;;;12.47;8.23;;;3.00;99.90;;;;;;5069106;28;20199;-64
2023/01/24 09:54:02;;;;;;;13.50;8.13;;;3.00;99.90;;;;;;5022292;28;20208;-66
2023/01/24 09:56:35;;;;;;;18.23;9.77;;;3.00;99.90;;;;;;5068916;28;20215;-65
2023/01/24 09:59:14;;;;;;;11.07;7.80;;;3.00;99.90;;;;;;5061050;28;20203;-67
2023/01/24 10:01:42;;;;;;;11.77;7.73;;;3.00;99.90;;;;;;5079004;28;20231;-65
2023/01/24 10:04:16;;;;;;;13.43;8.43;;;3.10;99.90;;;;;;5055477;27;21539;-65
2023/01/24 10:06:50;;;;;;;15.70;9.20;;;3.10;99.90;;;;;;5078787;28;20199;-66
2023/01/24 10:09:22;;;;;;;13.03;8.37;;;3.00;99.90;;;;;;5025193;28;20212;-65
2023/01/24 10:11:58;;;;;;;11.10;7.83;;;3.00;99.90;;;;;;5073105;28;20196;-66
2023/01/24 10:14:53;;;;;;;11.47;7.77;;;3.00;99.90;;;;;;5079105;28;20732;-66
2023/01/24 10:17:34;;;;;;;13.07;7.90;;;3.10;99.90;;;;;;5068426;28;20203;-66
2023/01/24 10:20:28;;;;;;;14.10;8.83;;;3.10;99.90;;;;;;5065805;28;20203;-66
2023/01/24 10:23:11;;;;;;;14.83;7.77;;;3.10;99.90;;;;;;5072603;28;20192;-65
2023/01/24 10:25:50;;;;;;;15.37;9.27;;;3.10;99.90;;;;;;5048078;28;20589;-65
2023/01/24 10:28:23;;;;;;;14.63;8.37;;;3.10;99.90;;;;;;5073384;28;20213;-65
2023/01/24 10:31:02;;;;;;;15.83;9.43;;;3.10;99.90;;;;;;5063617;28;20215;-65
2023/01/24 10:33:34;;;;;;;15.47;9.10;;;3.10;99.90;;;;;;5073886;28;20202;-65
2023/01/24 10:36:06;;;;;;;12.73;7.97;;;3.10;99.90;;;;;;5069390;28;20196;-66
2023/01/24 10:38:34;;;;;;;14.97;8.97;;;3.10;99.90;;;;;;5077770;28;20841;-66
2023/01/24 10:41:17;;;;;;;19.43;8.50;;;3.10;99.90;;;;;;5037094;28;20558;-66
2023/01/24 10:43:49;;;;;;;16.00;8.90;;;3.00;99.90;;;;;;5082695;28;20196;-65
2023/01/24 10:46:43;;;;;;;16.37;9.73;;;3.00;99.90;;;;;;5066319;28;20216;-66
2023/01/24 10:49:18;;;;;;;26.27;11.80;;;3.10;99.90;;;;;;5078013;28;20191;-66
2023/01/24 10:52:09;;;;;;;64.83;21.27;;;3.00;99.90;;;;;;5081981;28;20582;-66
2023/01/24 10:54:44;;;;;;;30.83;13.70;;;3.10;99.90;;;;;;5079714;28;20719;-66
2023/01/24 10:57:20;;;;;;;17.77;9.60;;;3.00;99.90;;;;;;5047211;28;20233;-65
2023/01/24 10:59:47;;;;;;;19.33;8.67;;;3.00;99.90;;;;;;5068212;28;20222;-65
2023/01/24 11:02:21;;;;;;;27.37;13.43;;;3.00;99.90;;;;;;5047304;28;20805;-66
2023/01/24 11:04:53;;;;;;;15.07;8.80;;;3.00;99.90;;;;;;5071020;28;20200;-65
2023/01/24 11:07:29;;;;;;;14.73;8.17;;;3.10;99.90;;;;;;5069340;28;20222;-66
2023/01/24 11:09:58;;;;;;;17.03;9.50;;;3.10;99.90;;;;;;5051189;28;20771;-65
2023/01/24 11:12:28;;;;;;;14.83;8.83;;;3.10;99.90;;;;;;5045150;28;20216;-66
2023/01/24 11:14:55;;;;;;;19.27;9.20;;;3.10;99.90;;;;;;5072896;28;20233;-66
2023/01/24 11:17:36;;;;;;;16.73;8.30;;;3.10;99.90;;;;;;5061465;28;20352;-66
2023/01/24 11:20:17;;;;;;;13.37;7.53;;;3.10;99.90;;;;;;5081342;28;20200;-66
2023/01/24 11:22:50;;;;;;;16.40;8.10;;;3.10;99.90;;;;;;5080417;28;20234;-65
2023/01/24 11:25:17;;;;;;;18.93;9.63;;;3.10;99.90;;;;;;5071377;28;20226;-65
2023/01/24 11:27:48;;;;;;;15.47;8.67;;;3.10;99.90;;;;;;4933631;28;20207;-65
2023/01/24 11:30:20;;;;;;;20.20;10.17;;;3.10;99.90;;;;;;4966428;28;20214;-66
2023/01/24 11:33:02;;;;;;;14.53;8.37;;;3.20;99.90;;;;;;4953331;28;20839;-66
2023/01/24 11:35:34;;;;;;;18.13;8.67;;;3.10;99.90;;;;;;4974782;28;20219;-66
2023/01/24 11:38:20;;;;;;;16.03;8.17;;;3.10;99.90;;;;;;4969102;28;20213;-66
2023/01/24 11:40:53;;;;;;;22.83;8.87;;;3.10;99.90;;;;;;4955646;28;20207;-66
2023/01/24 11:43:33;;;;;;;15.60;9.67;;;3.10;99.90;;;;;;4913082;28;20214;-66
2023/01/24 11:46:18;;;;;;;19.27;9.83;;;3.10;99.90;;;;;;4960977;28;20204;-66
2023/01/24 11:48:53;;;;;;;62.97;20.30;;;3.10;99.90;;;;;;4952430;28;20212;-66
2023/01/24 11:51:26;;;;;;;45.80;16.73;;;3.10;99.90;;;;;;4970015;28;20206;-66
2023/01/24 11:54:17;;;;;;;49.23;15.60;;;3.10;99.90;;;;;;4968854;28;20214;-66
2023/01/24 11:57:01;;;;;;;20.20;9.87;;;3.10;99.90;;;;;;4951862;28;20206;-65
2023/01/24 11:59:54;;;;;;;15.07;9.17;;;3.10;99.90;;;;;;4954068;28;20207;-66
2023/01/24 12:02:44;;;;;;;15.70;9.33;;;3.10;99.90;;;;;;4944578;28;20223;-66
2023/01/24 12:05:47;;;;;;;13.40;8.33;;;3.10;99.90;;;;;;4951970;28;20212;-65
2023/01/24 12:08:31;;;;;;;13.87;7.57;;;3.10;99.90;;;;;;4968633;28;20213;-66
2023/01/24 12:11:05;;;;;;;11.93;7.87;;;3.10;99.90;;;;;;4950929;28;20200;-66
2023/01/24 12:13:41;;;;;;;12.83;7.87;;;3.20;99.90;;;;;;4934806;28;20211;-66
2023/01/24 12:16:19;;;;;;;12.13;7.93;;;3.10;99.90;;;;;;4949220;28;20211;-65
2023/01/24 12:18:59;;;;;;;13.90;7.80;;;3.10;99.90;;;;;;4951440;28;20203;-66
2023/01/24 12:21:27;;;;;;;9.93;6.93;;;3.10;99.90;;;;;;4957432;28;20242;-65
2023/01/24 12:24:00;;;;;;;11.80;7.57;;;3.10;99.90;;;;;;4972005;28;20932;-66
2023/01/24 12:26:28;;;;;;;11.63;7.60;;;3.10;99.90;;;;;;4964656;28;20721;-66
2023/01/24 12:29:01;;;;;;;12.70;7.20;;;3.10;99.90;;;;;;4956163;28;20700;-66
2023/01/24 12:31:39;;;;;;;13.17;7.80;;;3.10;99.90;;;;;;4969450;28;20209;-67
2023/01/24 12:34:16;;;;;;;12.20;8.03;;;3.10;99.90;;;;;;4988148;28;20203;-66
2023/01/24 12:36:52;;;;;;;12.67;7.90;;;3.10;99.90;;;;;;4960148;28;20227;-66
2023/01/24 12:39:21;;;;;;;14.50;8.37;;;3.10;99.90;;;;;;5061799;22;20226;-69
2023/01/24 12:41:55;;;;;;;12.00;8.57;;;3.10;99.90;;;;;;5034368;27;20220;-65
2023/01/24 12:44:30;;;;;;;14.77;8.57;;;3.00;99.90;;;;;;5067644;27;20203;-67
2023/01/24 12:47:12;;;;;;;10.47;7.53;;;3.00;99.90;;;;;;5086688;27;20203;-66
2023/01/24 12:49:48;;;;;;;12.90;8.07;;;3.00;99.90;;;;;;5086265;27;20195;-65
2023/01/24 12:52:25;;;;;;;9.57;6.47;;;3.00;99.90;;;;;;5001095;27;20213;-65
2023/01/24 12:54:57;;;;;;;18.63;8.63;;;2.90;99.90;;;;;;4988754;28;20214;-68
2023/01/24 12:57:28;;;;;;;12.57;8.27;;;2.90;99.90;;;;;;4994133;28;20227;-65
2023/01/24 12:59:55;;;;;;;12.63;8.37;;;2.90;99.90;;;;;;4954139;28;20954;-66
2023/01/24 13:02:45;;;;;;;15.77;8.73;;;2.90;99.90;;;;;;4991851;28;20722;-65
2023/01/24 13:05:29;;;;;;;13.30;7.97;;;2.90;99.90;;;;;;4974704;28;20222;-65
2023/01/24 13:08:11;;;;;;;11.77;8.07;;;2.90;99.90;;;;;;5001814;27;20878;-66
2023/01/24 13:10:51;;;;;;;10.63;7.40;;;3.00;99.90;;;;;;4990829;28;20335;-64
2023/01/24 13:13:22;;;;;;;10.43;6.87;;;2.80;99.90;;;;;;4985224;28;20236;-66
2023/01/24 13:16:03;;;;;;;12.47;7.07;;;2.90;99.90;;;;;;4971284;28;20217;-66
2023/01/24 13:18:45;;;;;;;13.23;7.50;;;2.80;99.90;;;;;;4992516;28;20213;-67
2023/01/24 13:21:18;;;;;;;11.03;7.57;;;2.90;99.90;;;;;;4995937;28;20206;-66
2023/01/24 13:24:16;;;;;;;11.60;7.17;;;2.90;99.90;;;;;;5007641;28;20659;-66
2023/01/24 13:27:06;;;;;;;10.30;6.70;;;2.90;99.90;;;;;;5009961;28;20208;-65
2023/01/24 13:29:46;;;;;;;11.40;7.67;;;3.00;99.90;;;;;;4990038;28;20215;-67
2023/01/24 13:32:16;;;;;;;11.40;7.23;;;3.00;99.90;;;;;;4980158;28;20210;-66
2023/01/24 13:34:45;;;;;;;13.07;7.93;;;2.90;99.90;;;;;;4976507;27;20226;-65
2023/01/24 13:37:24;;;;;;;14.37;7.20;;;2.90;99.90;;;;;;4980836;28;21891;-65
2023/01/24 13:40:02;;;;;;;12.87;7.13;;;2.90;99.90;;;;;;4990011;28;20253;-65
2023/01/24 13:42:34;;;;;;;11.27;7.33;;;2.90;99.90;;;;;;4993478;28;20357;-65